Time;durP1;ratioP1;P1;durP2;ratioP2;P2;SDS_P1;SDS_P2;PMS_P1;PMS_P2;Temp;Humidity;BMP_temperature;BMP_pressure;BME280_temperature;BME280_humidity;BME280_pressure;Samples;Min_cycle;Max_cycle;Signal;HPM_P1;HPM_P2
2022/04/08 00:02:18;;;;;;;6.13;1.10;;;;;;;;;;4977912;28;20047;-79
2022/04/08 00:04:45;;;;;;;8.15;1.25;;;;;;;;;;4993824;28;20489;-80
2022/04/08 00:07:11;;;;;;;6.38;1.00;;;;;;;;;;4993348;28;21174;-80
2022/04/08 00:09:37;;;;;;;9.02;1.33;;;;;;;;;;4976749;28;20106;-79
2022/04/08 00:12:04;;;;;;;9.90;1.20;;;;;;;;;;4977808;28;20117;-79
2022/04/08 00:14:32;;;;;;;6.50;1.10;;;;;;;;;;4989758;28;20093;-80
2022/04/08 00:16:58;;;;;;;4.32;0.80;;;;;;;;;;4992962;28;20098;-80
2022/04/08 00:19:25;;;;;;;9.38;1.25;;;;;;;;;;4976978;28;20059;-80
2022/04/08 00:21:51;;;;;;;11.98;1.27;;;;;;;;;;4991977;28;20063;-80
2022/04/08 00:24:18;;;;;;;9.70;1.25;;;;;;;;;;4975566;28;20078;-78
2022/04/08 00:26:46;;;;;;;9.88;1.23;;;;;;;;;;4992711;28;20086;-78
2022/04/08 00:29:13;;;;;;;12.45;1.75;;;;;;;;;;4976148;28;20110;-78
2022/04/08 00:31:39;;;;;;;14.10;1.48;;;;;;;;;;4974307;28;20233;-79
2022/04/08 00:34:06;;;;;;;9.32;1.55;;;;;;;;;;4989061;28;20054;-80
2022/04/08 00:36:35;;;;;;;14.68;2.13;;;;;;;;;;4992271;28;20085;-78
2022/04/08 00:39:01;;;;;;;6.65;0.90;;;;;;;;;;4993723;28;20501;-79
2022/04/08 00:41:28;;;;;;;9.70;1.70;;;;;;;;;;4991771;28;20948;-80
2022/04/08 00:43:54;;;;;;;11.80;1.42;;;;;;;;;;4974795;28;20055;-80
2022/04/08 00:46:20;;;;;;;10.35;2.05;;;;;;;;;;4979232;28;20558;-80
2022/04/08 00:48:47;;;;;;;16.25;1.63;;;;;;;;;;4995099;28;20481;-79
2022/04/08 00:51:14;;;;;;;18.05;2.28;;;;;;;;;;4964617;28;20055;-80
2022/04/08 00:53:40;;;;;;;12.50;2.17;;;;;;;;;;4987903;28;20881;-80
2022/04/08 00:56:07;;;;;;;13.40;1.60;;;;;;;;;;4975056;28;20587;-80
2022/04/08 00:58:34;;;;;;;8.07;1.30;;;;;;;;;;4992001;28;20106;-78
2022/04/08 01:01:01;;;;;;;10.02;1.50;;;;;;;;;;4992288;28;20113;-80
2022/04/08 01:03:27;;;;;;;12.52;1.40;;;;;;;;;;4990009;28;20057;-80
2022/04/08 01:05:54;;;;;;;8.35;1.58;;;;;;;;;;4993209;28;20063;-80
2022/04/08 01:08:35;;;;;;;12.20;1.35;;;;;;;;;;4986937;28;20050;-81
2022/04/08 01:11:02;;;;;;;11.95;1.80;;;;;;;;;;4975823;28;20055;-78
2022/04/08 01:13:28;;;;;;;6.72;1.50;;;;;;;;;;4984095;28;20537;-79
2022/04/08 01:15:55;;;;;;;11.27;2.08;;;;;;;;;;4991210;28;20045;-79
2022/04/08 01:18:21;;;;;;;11.85;1.45;;;;;;;;;;4990843;28;20059;-80
2022/04/08 01:20:48;;;;;;;12.50;1.50;;;;;;;;;;4991754;28;20062;-80
2022/04/08 01:23:15;;;;;;;13.60;1.70;;;;;;;;;;4992840;28;20146;-81
2022/04/08 01:25:42;;;;;;;13.38;1.27;;;;;;;;;;5006743;28;20145;-80
2022/04/08 01:28:08;;;;;;;14.65;1.90;;;;;;;;;;4991738;28;20086;-79
2022/04/08 01:30:34;;;;;;;10.50;1.70;;;;;;;;;;4992968;28;20059;-79
2022/04/08 01:33:01;;;;;;;14.07;1.60;;;;;;;;;;4974388;28;20096;-79
2022/04/08 01:35:27;;;;;;;14.75;1.90;;;;;;;;;;4991859;28;20055;-80
2022/04/08 01:37:53;;;;;;;12.38;1.83;;;;;;;;;;4991219;28;20095;-80
2022/04/08 01:40:20;;;;;;;12.20;1.60;;;;;;;;;;4990450;28;20082;-79
2022/04/08 01:42:46;;;;;;;14.35;1.73;;;;;;;;;;4991697;28;20074;-79
2022/04/08 01:45:13;;;;;;;13.68;1.83;;;;;;;;;;4991524;28;20076;-78
2022/04/08 01:47:40;;;;;;;10.88;1.45;;;;;;;;;;4979092;28;20146;-80
2022/04/08 01:50:07;;;;;;;12.57;1.85;;;;;;;;;;4990337;28;20534;-79
2022/04/08 01:52:34;;;;;;;11.27;1.75;;;;;;;;;;4968659;28;20122;-80
2022/04/08 01:55:01;;;;;;;8.18;1.55;;;;;;;;;;4966317;28;20083;-79
2022/04/08 01:57:29;;;;;;;16.95;2.03;;;;;;;;;;4970232;28;20055;-79
2022/04/08 01:59:55;;;;;;;13.05;1.48;;;;;;;;;;4971938;28;20514;-80
2022/04/08 02:02:22;;;;;;;11.15;1.77;;;;;;;;;;4984622;28;20089;-78
2022/04/08 02:04:48;;;;;;;11.52;1.85;;;;;;;;;;4976953;28;20046;-80
2022/04/08 02:07:14;;;;;;;17.23;1.90;;;;;;;;;;4993201;28;21015;-79
2022/04/08 02:09:41;;;;;;;13.27;1.90;;;;;;;;;;4975664;28;20860;-80
2022/04/08 02:12:09;;;;;;;13.13;1.83;;;;;;;;;;4993676;28;20141;-80
2022/04/08 02:14:36;;;;;;;14.52;1.90;;;;;;;;;;4975873;28;20141;-79
2022/04/08 02:17:02;;;;;;;14.35;1.67;;;;;;;;;;4991926;28;20123;-79
2022/04/08 02:19:29;;;;;;;11.23;1.85;;;;;;;;;;5001621;28;20882;-80
2022/04/08 02:21:55;;;;;;;14.40;2.00;;;;;;;;;;4975327;28;20138;-80
2022/04/08 02:24:21;;;;;;;14.15;1.52;;;;;;;;;;4990902;28;20449;-80
2022/04/08 02:26:48;;;;;;;11.60;1.38;;;;;;;;;;4973880;28;20090;-80
2022/04/08 02:29:14;;;;;;;16.25;1.70;;;;;;;;;;4992046;28;20089;-79
2022/04/08 02:31:40;;;;;;;18.33;1.83;;;;;;;;;;4992005;28;20054;-80
2022/04/08 02:34:07;;;;;;;9.30;1.60;;;;;;;;;;4992937;28;20089;-79
2022/04/08 02:36:33;;;;;;;14.57;1.70;;;;;;;;;;4994193;28;20085;-79
2022/04/08 02:38:59;;;;;;;8.88;1.48;;;;;;;;;;4992535;28;20090;-78
2022/04/08 02:41:26;;;;;;;11.85;1.33;;;;;;;;;;4991792;28;20058;-79
2022/04/08 02:43:52;;;;;;;16.58;2.63;;;;;;;;;;4972854;28;20520;-80
2022/04/08 02:46:19;;;;;;;11.40;1.83;;;;;;;;;;4988589;28;20083;-79
2022/04/08 02:48:45;;;;;;;8.48;1.42;;;;;;;;;;4990452;28;20051;-79
2022/04/08 02:51:12;;;;;;;11.32;1.33;;;;;;;;;;4992366;28;20149;-80
2022/04/08 02:53:38;;;;;;;7.60;1.30;;;;;;;;;;4976856;28;20161;-78
2022/04/08 02:56:04;;;;;;;7.60;1.25;;;;;;;;;;4994236;28;20328;-79
2022/04/08 02:58:31;;;;;;;8.05;1.60;;;;;;;;;;4972025;28;20055;-80
2022/04/08 03:00:59;;;;;;;6.78;1.25;;;;;;;;;;4988479;28;20150;-78
2022/04/08 03:03:26;;;;;;;7.43;1.30;;;;;;;;;;4971634;28;20056;-79
2022/04/08 03:05:53;;;;;;;6.45;1.20;;;;;;;;;;4975693;28;20057;-79
2022/04/08 03:08:20;;;;;;;5.70;1.27;;;;;;;;;;4976039;28;20133;-79
2022/04/08 03:10:46;;;;;;;6.35;1.25;;;;;;;;;;4984063;28;20137;-80
2022/04/08 03:13:12;;;;;;;8.55;1.85;;;;;;;;;;4991670;28;20145;-79
2022/04/08 03:15:39;;;;;;;6.53;1.40;;;;;;;;;;4976237;28;20054;-79
2022/04/08 03:18:05;;;;;;;6.30;1.30;;;;;;;;;;5008025;28;20051;-79
2022/04/08 03:20:32;;;;;;;5.00;1.30;;;;;;;;;;4992878;28;20059;-78
2022/04/08 03:22:58;;;;;;;7.95;1.45;;;;;;;;;;4975948;28;20086;-79
2022/04/08 03:25:24;;;;;;;9.63;2.13;;;;;;;;;;4992875;28;20055;-80
2022/04/08 03:27:51;;;;;;;8.27;1.77;;;;;;;;;;4990209;28;20101;-80
2022/04/08 03:30:18;;;;;;;7.53;1.50;;;;;;;;;;4976149;28;20111;-79
2022/04/08 03:32:44;;;;;;;13.18;1.80;;;;;;;;;;4975193;28;20135;-79
2022/04/08 03:35:10;;;;;;;7.35;1.75;;;;;;;;;;4994094;28;20145;-79
2022/04/08 03:37:37;;;;;;;8.73;1.20;;;;;;;;;;4992405;28;20057;-79
2022/04/08 03:40:03;;;;;;;7.47;1.63;;;;;;;;;;4991854;28;20074;-79
2022/04/08 03:42:30;;;;;;;9.43;1.60;;;;;;;;;;4989689;28;20079;-79
2022/04/08 03:44:56;;;;;;;9.02;1.88;;;;;;;;;;4988891;28;20114;-80
2022/04/08 03:47:22;;;;;;;7.30;1.70;;;;;;;;;;4991522;28;20569;-80
2022/04/08 03:49:49;;;;;;;8.45;1.30;;;;;;;;;;4992270;28;20446;-79
2022/04/08 03:52:15;;;;;;;9.30;1.73;;;;;;;;;;4991583;28;20082;-79
2022/04/08 03:54:41;;;;;;;8.02;1.50;;;;;;;;;;4993388;28;20106;-79
2022/04/08 03:57:08;;;;;;;9.40;1.77;;;;;;;;;;4988582;28;20056;-80
2022/04/08 03:59:39;;;;;;;12.50;1.83;;;;;;;;;;4976095;28;20114;-80
2022/04/08 04:02:05;;;;;;;7.03;2.00;;;;;;;;;;4988645;28;20059;-79
2022/04/08 04:04:32;;;;;;;9.52;1.77;;;;;;;;;;5006649;28;20059;-80
2022/04/08 04:06:58;;;;;;;11.98;1.67;;;;;;;;;;4991124;28;20078;-80
2022/04/08 04:09:26;;;;;;;5.75;1.60;;;;;;;;;;4992161;28;20062;-81
2022/04/08 04:11:52;;;;;;;5.50;1.60;;;;;;;;;;4992279;28;20051;-81
2022/04/08 04:14:18;;;;;;;9.55;1.90;;;;;;;;;;4974916;28;20138;-82
2022/04/08 04:16:45;;;;;;;8.32;1.65;;;;;;;;;;4975863;28;20522;-80
2022/04/08 04:19:11;;;;;;;7.75;1.50;;;;;;;;;;4970026;28;20097;-80
2022/04/08 04:21:40;;;;;;;9.88;1.85;;;;;;;;;;4961389;28;20059;-82
2022/04/08 04:24:06;;;;;;;12.98;1.85;;;;;;;;;;4971123;28;20105;-80
2022/04/08 04:26:33;;;;;;;9.60;1.98;;;;;;;;;;4984701;28;20556;-81
2022/04/08 04:28:59;;;;;;;10.45;1.88;;;;;;;;;;4993338;28;20094;-79
2022/04/08 04:31:26;;;;;;;13.43;2.15;;;;;;;;;;4979616;28;20055;-81
2022/04/08 04:33:52;;;;;;;10.13;1.98;;;;;;;;;;4975658;28;20811;-81
2022/04/08 04:36:19;;;;;;;13.73;2.35;;;;;;;;;;4975363;28;20110;-80
2022/04/08 04:38:45;;;;;;;9.73;2.10;;;;;;;;;;4971941;28;20135;-80
2022/04/08 04:41:11;;;;;;;11.85;2.25;;;;;;;;;;4974667;28;20073;-81
2022/04/08 04:43:38;;;;;;;9.02;1.90;;;;;;;;;;5000724;28;20516;-81
2022/04/08 04:46:04;;;;;;;9.63;2.13;;;;;;;;;;4976162;28;20215;-82
2022/04/08 04:48:31;;;;;;;14.05;2.25;;;;;;;;;;4976342;28;20054;-81
2022/04/08 04:50:57;;;;;;;8.43;2.33;;;;;;;;;;4991410;28;20106;-82
2022/04/08 04:53:24;;;;;;;9.77;2.17;;;;;;;;;;4994014;28;20428;-80
2022/04/08 04:55:50;;;;;;;9.50;2.50;;;;;;;;;;4992671;28;20058;-81
2022/04/08 04:58:16;;;;;;;9.50;2.17;;;;;;;;;;5007307;28;20901;-79
2022/04/08 05:00:45;;;;;;;11.45;2.28;;;;;;;;;;4987785;28;20051;-81
2022/04/08 05:03:13;;;;;;;10.90;2.40;;;;;;;;;;5008137;28;20035;-80
2022/04/08 05:05:40;;;;;;;8.80;2.50;;;;;;;;;;4981492;28;20054;-80
2022/04/08 05:08:09;;;;;;;12.02;2.70;;;;;;;;;;4975709;28;20058;-80
2022/04/08 05:10:36;;;;;;;10.18;2.72;;;;;;;;;;4993692;28;20058;-81
2022/04/08 05:13:02;;;;;;;9.77;3.28;;;;;;;;;;4993160;28;20145;-80
2022/04/08 05:15:29;;;;;;;11.45;3.05;;;;;;;;;;4993071;28;20051;-80
2022/04/08 05:17:57;;;;;;;12.60;3.60;;;;;;;;;;4992607;28;20137;-80
2022/04/08 05:20:24;;;;;;;16.02;3.03;;;;;;;;;;4992857;28;20102;-81
2022/04/08 05:22:50;;;;;;;13.07;3.40;;;;;;;;;;4992084;28;20054;-81
2022/04/08 05:25:20;;;;;;;9.07;3.00;;;;;;;;;;4981307;28;20048;-81
2022/04/08 05:27:46;;;;;;;17.25;3.35;;;;;;;;;;5005607;28;20261;-80
2022/04/08 05:30:16;;;;;;;12.57;3.22;;;;;;;;;;4958390;28;20082;-81
2022/04/08 05:32:46;;;;;;;11.45;3.13;;;;;;;;;;4974643;28;20058;-80
2022/04/08 05:35:17;;;;;;;18.77;2.95;;;;;;;;;;4987035;28;20123;-80
2022/04/08 05:37:44;;;;;;;9.45;2.67;;;;;;;;;;4990839;28;20598;-79
2022/04/08 05:40:12;;;;;;;11.63;2.90;;;;;;;;;;4988858;28;20086;-79
2022/04/08 05:42:39;;;;;;;7.45;2.15;;;;;;;;;;4983552;28;20088;-80
2022/04/08 05:45:07;;;;;;;10.55;2.45;;;;;;;;;;5000937;28;20046;-81
2022/04/08 05:47:34;;;;;;;8.50;2.60;;;;;;;;;;4978995;28;20101;-80
2022/04/08 05:50:01;;;;;;;13.25;2.75;;;;;;;;;;4992540;28;20557;-80
2022/04/08 05:52:27;;;;;;;8.95;2.63;;;;;;;;;;5007120;28;20086;-81
2022/04/08 05:54:53;;;;;;;13.38;2.85;;;;;;;;;;4997665;28;20604;-79
2022/04/08 05:57:20;;;;;;;8.50;2.50;;;;;;;;;;4974478;28;20498;-79
2022/04/08 05:59:46;;;;;;;10.40;2.42;;;;;;;;;;4975864;28;20055;-81
2022/04/08 06:02:12;;;;;;;11.55;2.50;;;;;;;;;;4975043;28;20138;-80
2022/04/08 06:04:39;;;;;;;9.05;2.40;;;;;;;;;;4971103;28;20082;-80
2022/04/08 06:07:05;;;;;;;7.28;2.63;;;;;;;;;;5005378;28;20134;-80
2022/04/08 06:09:32;;;;;;;10.05;2.33;;;;;;;;;;4992197;28;20051;-80
2022/04/08 06:12:02;;;;;;;12.15;2.45;;;;;;;;;;4991852;28;20101;-80
2022/04/08 06:14:29;;;;;;;8.50;2.50;;;;;;;;;;4975322;28;20047;-79
2022/04/08 06:16:56;;;;;;;6.82;2.28;;;;;;;;;;4990436;28;20106;-80
2022/04/08 06:19:22;;;;;;;9.75;2.35;;;;;;;;;;5006042;28;20851;-81
2022/04/08 06:21:48;;;;;;;10.25;2.70;;;;;;;;;;4991436;28;20090;-79
2022/04/08 06:24:15;;;;;;;14.98;3.03;;;;;;;;;;4973984;28;20128;-80
2022/04/08 06:26:41;;;;;;;7.10;1.70;;;;;;;;;;4973993;28;20995;-80
2022/04/08 06:29:09;;;;;;;7.53;2.10;;;;;;;;;;4993375;28;20070;-80
2022/04/08 06:31:35;;;;;;;8.25;2.10;;;;;;;;;;4975974;28;20565;-80
2022/04/08 06:34:02;;;;;;;10.32;1.85;;;;;;;;;;4973165;28;20074;-80
2022/04/08 06:36:28;;;;;;;6.05;1.63;;;;;;;;;;4989494;28;20489;-81
2022/04/08 06:38:55;;;;;;;8.43;1.90;;;;;;;;;;4991031;28;20058;-81
2022/04/08 06:41:21;;;;;;;11.75;2.28;;;;;;;;;;4989764;28;20058;-80
2022/04/08 06:43:47;;;;;;;8.65;2.00;;;;;;;;;;4991403;28;20102;-79
2022/04/08 06:46:14;;;;;;;7.18;1.88;;;;;;;;;;4982270;28;20118;-80
2022/04/08 06:48:42;;;;;;;11.05;2.50;;;;;;;;;;4992418;28;20065;-80
2022/04/08 06:51:08;;;;;;;11.77;2.47;;;;;;;;;;4990086;28;20210;-78
2022/04/08 06:53:40;;;;;;;6.15;1.60;;;;;;;;;;4980580;28;20054;-79
2022/04/08 06:56:06;;;;;;;9.68;2.03;;;;;;;;;;4983542;28;20055;-80
2022/04/08 06:58:38;;;;;;;8.40;2.03;;;;;;;;;;4993888;28;20082;-79
2022/04/08 07:01:06;;;;;;;9.48;1.70;;;;;;;;;;4993868;28;20055;-81
2022/04/08 07:03:33;;;;;;;7.63;1.95;;;;;;;;;;4974948;28;20698;-81
2022/04/08 07:05:59;;;;;;;9.80;2.45;;;;;;;;;;4992135;28;20146;-80
2022/04/08 07:08:26;;;;;;;8.88;3.30;;;;;;;;;;4992134;28;20047;-81
2022/04/08 07:10:54;;;;;;;9.93;2.60;;;;;;;;;;4994551;28;20442;-81
2022/04/08 07:13:23;;;;;;;10.35;2.58;;;;;;;;;;4995297;28;20063;-82
2022/04/08 07:15:49;;;;;;;8.95;2.45;;;;;;;;;;4973492;28;20051;-81
2022/04/08 07:18:16;;;;;;;9.05;2.25;;;;;;;;;;4994550;28;20058;-80
2022/04/08 07:20:44;;;;;;;5.65;2.00;;;;;;;;;;4994036;28;20498;-83
2022/04/08 07:23:11;;;;;;;8.45;2.28;;;;;;;;;;4977810;28;20093;-79
2022/04/08 07:25:38;;;;;;;6.88;1.95;;;;;;;;;;4995415;28;20066;-80
2022/04/08 07:28:05;;;;;;;8.32;2.10;;;;;;;;;;4978071;28;20146;-81
2022/04/08 07:30:32;;;;;;;8.77;2.10;;;;;;;;;;4979282;28;20133;-82
2022/04/08 07:33:00;;;;;;;10.20;2.00;;;;;;;;;;4977897;28;20106;-79
2022/04/08 07:35:26;;;;;;;7.22;1.60;;;;;;;;;;5009011;28;20122;-81
2022/04/08 07:37:53;;;;;;;11.30;2.10;;;;;;;;;;4991785;28;20560;-80
2022/04/08 07:40:20;;;;;;;5.88;1.65;;;;;;;;;;4984292;28;20058;-81
2022/04/08 07:42:46;;;;;;;6.22;1.50;;;;;;;;;;4994302;28;20079;-80
2022/04/08 07:45:13;;;;;;;10.15;1.85;;;;;;;;;;4977351;28;20117;-82
2022/04/08 07:47:40;;;;;;;9.32;1.92;;;;;;;;;;5002206;28;20105;-82
2022/04/08 07:50:10;;;;;;;6.80;1.63;;;;;;;;;;4992477;28;20087;-82
2022/04/08 07:52:37;;;;;;;5.35;1.50;;;;;;;;;;4993798;28;20204;-82
2022/04/08 07:55:04;;;;;;;5.45;1.63;;;;;;;;;;4969356;28;20065;-82
2022/04/08 07:57:30;;;;;;;6.82;1.40;;;;;;;;;;4992648;28;20066;-80
2022/04/08 07:59:57;;;;;;;9.68;2.03;;;;;;;;;;4976289;28;20520;-81
2022/04/08 08:02:23;;;;;;;7.07;2.00;;;;;;;;;;4975390;28;20114;-83
2022/04/08 08:04:50;;;;;;;7.05;1.30;;;;;;;;;;4992998;28;20054;-83
2022/04/08 08:07:16;;;;;;;6.72;1.70;;;;;;;;;;4980910;28;20079;-83
2022/04/08 08:09:43;;;;;;;5.47;1.90;;;;;;;;;;4988481;28;20055;-81
2022/04/08 08:12:24;;;;;;;6.60;1.48;;;;;;;;;;4988016;28;20117;-82
2022/04/08 08:14:52;;;;;;;9.05;1.85;;;;;;;;;;4987049;28;20090;-82
2022/04/08 08:17:19;;;;;;;8.50;2.30;;;;;;;;;;4976268;28;20117;-82
2022/04/08 08:19:46;;;;;;;7.47;1.60;;;;;;;;;;4993309;28;20566;-82
2022/04/08 08:22:12;;;;;;;5.97;1.50;;;;;;;;;;4985013;28;20079;-80
2022/04/08 08:24:38;;;;;;;13.02;2.20;;;;;;;;;;4987423;28;20459;-83
2022/04/08 08:27:05;;;;;;;12.40;3.40;;;;;;;;;;4989808;28;20055;-82
2022/04/08 08:29:31;;;;;;;12.15;1.95;;;;;;;;;;4970890;28;20051;-82
2022/04/08 08:31:58;;;;;;;7.65;1.50;;;;;;;;;;4982513;28;20063;-82
2022/04/08 08:34:25;;;;;;;8.32;1.67;;;;;;;;;;4994588;28;20089;-84
2022/04/08 08:36:54;;;;;;;7.35;1.67;;;;;;;;;;4974893;28;20098;-83
2022/04/08 08:39:22;;;;;;;6.65;1.90;;;;;;;;;;4976585;28;20054;-80
2022/04/08 08:41:49;;;;;;;10.02;1.77;;;;;;;;;;4993047;28;20086;-82
2022/04/08 08:44:16;;;;;;;11.07;1.88;;;;;;;;;;4992315;28;21888;-82
2022/04/08 08:46:51;;;;;;;11.75;1.50;;;;;;;;;;4977727;28;20105;-83
2022/04/08 08:49:18;;;;;;;10.20;2.30;;;;;;;;;;4994102;28;20094;-81
2022/04/08 08:51:48;;;;;;;7.57;1.50;;;;;;;;;;5001141;28;20063;-81
2022/04/08 08:54:28;;;;;;;9.73;2.08;;;;;;;;;;4998479;28;20149;-83
2022/04/08 08:56:55;;;;;;;5.70;1.40;;;;;;;;;;5000489;28;20105;-81
2022/04/08 08:59:21;;;;;;;9.50;1.58;;;;;;;;;;4988205;28;20055;-83
2022/04/08 09:01:48;;;;;;;6.30;1.38;;;;;;;;;;4991670;28;20106;-82
2022/04/08 09:04:15;;;;;;;6.13;1.60;;;;;;;;;;4982581;28;20110;-83
2022/04/08 09:06:44;;;;;;;11.18;1.80;;;;;;;;;;4993929;28;20055;-83
2022/04/08 09:09:11;;;;;;;8.18;1.67;;;;;;;;;;4991364;28;20059;-80
2022/04/08 09:11:37;;;;;;;10.02;1.60;;;;;;;;;;4977301;28;20054;-83
2022/04/08 09:14:04;;;;;;;6.95;1.60;;;;;;;;;;4995260;28;20055;-83
2022/04/08 09:16:36;;;;;;;10.57;1.50;;;;;;;;;;4989945;28;20050;-81
2022/04/08 09:19:09;;;;;;;10.18;2.15;;;;;;;;;;4994021;28;20525;-81
2022/04/08 09:21:35;;;;;;;8.68;1.75;;;;;;;;;;4992316;28;20097;-82
2022/04/08 09:24:06;;;;;;;6.18;1.50;;;;;;;;;;4993108;28;20094;-82
2022/04/08 09:26:36;;;;;;;12.52;2.10;;;;;;;;;;4994947;28;20113;-81
2022/04/08 09:29:03;;;;;;;8.07;1.60;;;;;;;;;;4979945;28;20079;-82
2022/04/08 09:31:30;;;;;;;6.20;1.70;;;;;;;;;;4992133;28;20114;-83
2022/04/08 09:33:56;;;;;;;9.15;1.67;;;;;;;;;;4970207;28;20751;-82
2022/04/08 09:36:27;;;;;;;10.77;2.03;;;;;;;;;;4980583;28;20047;-82
2022/04/08 09:38:53;;;;;;;7.28;1.77;;;;;;;;;;4978713;28;20156;-79
2022/04/08 09:41:20;;;;;;;10.80;1.70;;;;;;;;;;4994355;28;20911;-82
2022/04/08 09:43:46;;;;;;;5.03;1.30;;;;;;;;;;4989276;28;20537;-82
2022/04/08 09:46:14;;;;;;;7.72;1.30;;;;;;;;;;4969735;28;20081;-82
2022/04/08 09:48:41;;;;;;;8.38;1.55;;;;;;;;;;4994148;28;20132;-82
2022/04/08 09:51:09;;;;;;;9.75;1.98;;;;;;;;;;4992490;28;20054;-83
2022/04/08 09:53:44;;;;;;;12.65;1.77;;;;;;;;;;4993145;28;20478;-82
2022/04/08 09:56:14;;;;;;;6.93;1.50;;;;;;;;;;4986146;28;20238;-81
2022/04/08 09:58:42;;;;;;;5.50;1.50;;;;;;;;;;4992705;28;20113;-83
2022/04/08 10:01:09;;;;;;;10.82;1.88;;;;;;;;;;4990467;28;20050;-83
2022/04/08 10:03:35;;;;;;;8.15;1.30;;;;;;;;;;4974167;28;20050;-82
2022/04/08 10:06:02;;;;;;;6.18;1.52;;;;;;;;;;4974237;28;20078;-83
2022/04/08 10:08:30;;;;;;;6.80;1.70;;;;;;;;;;4972491;28;20066;-84
2022/04/08 10:11:00;;;;;;;7.35;1.35;;;;;;;;;;4970950;28;20055;-83
2022/04/08 10:13:26;;;;;;;8.67;1.50;;;;;;;;;;4990956;28;20082;-84
2022/04/08 10:16:07;;;;;;;10.75;1.48;;;;;;;;;;4968448;28;20051;-84
2022/04/08 10:18:38;;;;;;;9.23;1.30;;;;;;;;;;4989113;28;20108;-82
2022/04/08 10:21:04;;;;;;;7.78;1.73;;;;;;;;;;4973412;28;20059;-83
2022/04/08 10:23:38;;;;;;;5.30;1.27;;;;;;;;;;4976796;28;20055;-83
2022/04/08 10:26:06;;;;;;;5.90;1.33;;;;;;;;;;4993175;28;20058;-84
2022/04/08 10:28:33;;;;;;;4.82;1.23;;;;;;;;;;4992487;28;20051;-83
2022/04/08 10:31:00;;;;;;;9.10;1.30;;;;;;;;;;4992791;28;20047;-83
2022/04/08 10:33:27;;;;;;;7.60;1.50;;;;;;;;;;4974713;28;20469;-83
2022/04/08 10:36:00;;;;;;;8.65;1.23;;;;;;;;;;4993662;28;20086;-81
2022/04/08 10:38:36;;;;;;;6.43;1.10;;;;;;;;;;4993141;28;20051;-82
2022/04/08 10:41:08;;;;;;;5.90;1.20;;;;;;;;;;4975878;28;20544;-81
2022/04/08 10:43:42;;;;;;;5.60;1.63;;;;;;;;;;4976999;28;20035;-83
2022/04/08 10:46:09;;;;;;;9.60;1.67;;;;;;;;;;4992758;28;20070;-82
2022/04/08 10:48:37;;;;;;;10.48;1.48;;;;;;;;;;4994191;28;20058;-83
2022/04/08 10:51:09;;;;;;;8.18;2.13;;;;;;;;;;4993372;28;20161;-83
2022/04/08 10:53:40;;;;;;;7.28;1.20;;;;;;;;;;4986958;28;20165;-81
2022/04/08 10:56:12;;;;;;;4.78;1.13;;;;;;;;;;4984713;28;20051;-82
2022/04/08 10:58:41;;;;;;;5.40;1.27;;;;;;;;;;4991367;28;20090;-83
2022/04/08 11:01:14;;;;;;;7.68;1.67;;;;;;;;;;4992646;28;20061;-83
2022/04/08 11:03:51;;;;;;;8.82;1.67;;;;;;;;;;4992019;28;20055;-83
2022/04/08 11:06:19;;;;;;;8.32;1.90;;;;;;;;;;4990872;28;20145;-82
2022/04/08 11:08:45;;;;;;;6.35;1.40;;;;;;;;;;4989973;28;20109;-84
2022/04/08 11:11:12;;;;;;;4.63;1.25;;;;;;;;;;4992323;28;20055;-82
2022/04/08 11:13:44;;;;;;;4.53;1.45;;;;;;;;;;4990718;28;20086;-82
2022/04/08 11:16:10;;;;;;;13.50;1.65;;;;;;;;;;4989970;28;20178;-82
2022/04/08 11:18:45;;;;;;;5.28;1.33;;;;;;;;;;4992551;28;20065;-83
2022/04/08 11:21:17;;;;;;;5.22;1.30;;;;;;;;;;4985757;28;20067;-83
2022/04/08 11:23:55;;;;;;;8.98;1.65;;;;;;;;;;4974562;28;20533;-83
2022/04/08 11:26:22;;;;;;;8.10;1.40;;;;;;;;;;4975065;28;20082;-83
2022/04/08 11:28:48;;;;;;;5.00;1.10;;;;;;;;;;4992704;28;20078;-82
2022/04/08 11:31:34;;;;;;;6.38;1.15;;;;;;;;;;4992430;28;20061;-83
2022/04/08 11:34:04;;;;;;;16.63;1.70;;;;;;;;;;4991252;28;20146;-83
2022/04/08 11:36:30;;;;;;;6.10;1.73;;;;;;;;;;4971508;28;20095;-81
2022/04/08 11:38:57;;;;;;;5.57;1.20;;;;;;;;;;4998476;28;20054;-83
2022/04/08 11:41:35;;;;;;;4.90;1.13;;;;;;;;;;4991848;28;20589;-82
2022/04/08 11:44:05;;;;;;;5.82;1.05;;;;;;;;;;4991750;28;20045;-82
2022/04/08 11:46:42;;;;;;;7.32;1.65;;;;;;;;;;4990812;28;20142;-81
2022/04/08 11:49:10;;;;;;;7.03;1.00;;;;;;;;;;4990415;28;20114;-83
2022/04/08 11:51:40;;;;;;;7.75;1.40;;;;;;;;;;4991036;28;20224;-80
2022/04/08 11:54:06;;;;;;;5.35;1.05;;;;;;;;;;4991245;28;20086;-80
2022/04/08 11:56:35;;;;;;;4.88;1.23;;;;;;;;;;4993978;28;20118;-80
2022/04/08 11:59:08;;;;;;;7.75;1.30;;;;;;;;;;4992548;28;21819;-82
2022/04/08 12:01:36;;;;;;;9.88;1.40;;;;;;;;;;4992945;28;20093;-82
2022/04/08 12:04:10;;;;;;;9.05;1.42;;;;;;;;;;4992899;28;20960;-82
2022/04/08 12:06:39;;;;;;;7.38;1.27;;;;;;;;;;4992077;28;20087;-82
2022/04/08 12:09:10;;;;;;;9.73;1.50;;;;;;;;;;4975884;28;20061;-83
2022/04/08 12:11:42;;;;;;;6.63;1.00;;;;;;;;;;4971764;28;20138;-81
2022/04/08 12:14:14;;;;;;;3.40;0.85;;;;;;;;;;5001018;28;20635;-82
2022/04/08 12:16:45;;;;;;;7.78;1.27;;;;;;;;;;4993166;28;20566;-82
2022/04/08 12:19:11;;;;;;;5.90;1.15;;;;;;;;;;4976386;28;20142;-81
2022/04/08 12:21:57;;;;;;;6.60;1.30;;;;;;;;;;4993066;28;20058;-81
2022/04/08 12:24:26;;;;;;;6.13;1.08;;;;;;;;;;4990192;28;20090;-82
2022/04/08 12:26:53;;;;;;;6.97;1.20;;;;;;;;;;4987683;28;20150;-82
2022/04/08 12:29:19;;;;;;;7.65;1.50;;;;;;;;;;4987454;28;21205;-82
2022/04/08 12:31:46;;;;;;;6.45;1.40;;;;;;;;;;4992137;28;20129;-82
2022/04/08 12:34:17;;;;;;;6.80;1.20;;;;;;;;;;4991076;28;20069;-83
2022/04/08 12:36:44;;;;;;;8.27;1.30;;;;;;;;;;4992402;28;20150;-81
2022/04/08 12:39:14;;;;;;;5.23;1.17;;;;;;;;;;4978810;28;20058;-81
2022/04/08 12:41:41;;;;;;;5.10;1.00;;;;;;;;;;4970310;28;20454;-81
2022/04/08 12:44:08;;;;;;;3.45;0.80;;;;;;;;;;4995766;28;20078;-82
2022/04/08 12:46:35;;;;;;;5.82;1.08;;;;;;;;;;4989686;28;20121;-82
2022/04/08 12:49:02;;;;;;;5.50;1.13;;;;;;;;;;4986719;28;20153;-80
2022/04/08 12:51:29;;;;;;;7.47;1.60;;;;;;;;;;4991496;28;20035;-82
2022/04/08 12:53:55;;;;;;;7.05;1.40;;;;;;;;;;4986636;28;20054;-80
2022/04/08 12:56:24;;;;;;;7.78;1.33;;;;;;;;;;4979681;28;20090;-79
2022/04/08 12:58:51;;;;;;;7.40;1.30;;;;;;;;;;4996994;28;20588;-82
2022/04/08 13:01:17;;;;;;;4.93;0.93;;;;;;;;;;4973473;28;20149;-81
2022/04/08 13:03:43;;;;;;;8.20;1.55;;;;;;;;;;4987642;28;20268;-81
2022/04/08 13:06:10;;;;;;;7.10;1.35;;;;;;;;;;4970055;28;20071;-82
2022/04/08 13:08:37;;;;;;;7.07;1.08;;;;;;;;;;4991256;28;20097;-79
2022/04/08 13:11:04;;;;;;;5.63;1.10;;;;;;;;;;4973233;28;20858;-81
2022/04/08 13:13:33;;;;;;;5.40;1.30;;;;;;;;;;4988201;28;20061;-80
2022/04/08 13:15:59;;;;;;;4.20;1.23;;;;;;;;;;4989004;28;20153;-82
2022/04/08 13:18:26;;;;;;;4.05;1.20;;;;;;;;;;4984992;28;20132;-81
2022/04/08 13:20:52;;;;;;;6.38;1.35;;;;;;;;;;4990727;28;20086;-82
2022/04/08 13:23:19;;;;;;;6.22;1.42;;;;;;;;;;4973552;28;20835;-81
2022/04/08 13:25:45;;;;;;;6.80;1.38;;;;;;;;;;4991377;28;20138;-81
2022/04/08 13:28:13;;;;;;;8.65;1.48;;;;;;;;;;4990575;28;20055;-81
2022/04/08 13:30:42;;;;;;;5.90;1.40;;;;;;;;;;4973843;28;20059;-81
2022/04/08 13:33:08;;;;;;;6.18;1.20;;;;;;;;;;5007125;28;20082;-82
2022/04/08 13:35:35;;;;;;;5.00;1.17;;;;;;;;;;4978426;28;20565;-81
2022/04/08 13:38:01;;;;;;;4.93;1.30;;;;;;;;;;4990333;28;20138;-80
2022/04/08 13:40:28;;;;;;;7.07;1.65;;;;;;;;;;4973237;28;20058;-81
2022/04/08 13:42:55;;;;;;;9.02;1.38;;;;;;;;;;4989194;28;20106;-82
2022/04/08 13:45:21;;;;;;;7.85;1.27;;;;;;;;;;4971729;28;20082;-82
2022/04/08 13:47:50;;;;;;;4.97;1.20;;;;;;;;;;4972220;28;20054;-80
2022/04/08 13:50:16;;;;;;;8.40;1.30;;;;;;;;;;4989825;28;20145;-80
2022/04/08 13:52:43;;;;;;;7.40;1.55;;;;;;;;;;4989234;28;20141;-80
2022/04/08 13:55:10;;;;;;;5.03;1.20;;;;;;;;;;4986280;28;20063;-81
2022/04/08 13:57:36;;;;;;;5.25;1.10;;;;;;;;;;4991034;28;20101;-81
2022/04/08 14:00:06;;;;;;;5.57;1.20;;;;;;;;;;4988433;28;20114;-81
2022/04/08 14:02:32;;;;;;;6.80;1.10;;;;;;;;;;4989404;28;20146;-80
2022/04/08 14:04:59;;;;;;;4.60;1.10;;;;;;;;;;4973176;28;20801;-80
2022/04/08 14:07:25;;;;;;;9.30;1.60;;;;;;;;;;4972217;28;20083;-80
2022/04/08 14:09:52;;;;;;;7.28;1.50;;;;;;;;;;4981919;28;20051;-81
2022/04/08 14:12:21;;;;;;;6.90;1.70;;;;;;;;;;4988489;28;20154;-80
2022/04/08 14:14:47;;;;;;;6.32;1.35;;;;;;;;;;4990094;28;20141;-79
2022/04/08 14:17:34;;;;;;;9.32;1.58;;;;;;;;;;4990401;28;20133;-81
2022/04/08 14:20:00;;;;;;;7.28;1.42;;;;;;;;;;4972005;28;20603;-82
2022/04/08 14:22:28;;;;;;;5.50;1.65;;;;;;;;;;4992427;28;20065;-81
2022/04/08 14:24:54;;;;;;;6.45;1.30;;;;;;;;;;4975204;28;20099;-80
2022/04/08 14:27:41;;;;;;;8.13;1.60;;;;;;;;;;4986835;28;20141;-82
2022/04/08 14:30:07;;;;;;;6.70;1.73;;;;;;;;;;4988208;28;20150;-81
2022/04/08 14:32:33;;;;;;;10.10;1.67;;;;;;;;;;4993546;28;20094;-81
2022/04/08 14:35:00;;;;;;;6.07;1.40;;;;;;;;;;4984573;28;20083;-80
2022/04/08 14:37:27;;;;;;;5.70;1.55;;;;;;;;;;4988593;28;20229;-81
2022/04/08 14:39:53;;;;;;;9.00;1.42;;;;;;;;;;4988806;28;20138;-79
2022/04/08 14:42:19;;;;;;;5.28;1.30;;;;;;;;;;4971735;28;20108;-81